Capitol Logistics 1871

Operating for CJT



CYOW
Ottawa Macdonald-Cartier International Airport
Ottawa, CA
CYFB
Iqaluit Airport
Iqaluit, CA

Activity Log

Date Flight Route Aircraft Duration
No Flights Yet

Route Details

Aircraft Information
Group: North America Fleet
Types: B738,B752,B762,B763
Route Data
Demand: M
Distance: 1134nm
Duration: 2h 23m
Recm'd Route: YOW RADEN YFM 6000N/07100W CIRCK XUDPA
Origin Wx: CYOW 270500Z 21014G22KT 15SM SCT050 BKN090 21/15 A2982 RMK SC4AC3 SLP098 DENSITY ALT 1300FT
Dest. Wx: CYFB 270500Z 14005KT 30SM OVC050 M06/M09 A3006 RMK SC8 SLP186
Notes:

Financial History
Total Freight: 0lbs
Average Load: 0lbs/flt
Fuel Used: 0lbs
Avg. Fuel Used: 0lbs/flt
Fuel Expense: $0
Avg. Fuel Expense: $0
Avg. Fuel Cost: $0/lbs
Total Gross Income: $0
Pilot Pay: $0
Total Expenses: $0
Total Revenue: $0
Average Revenue: $0